Watertown International Airport
KART : now visible

Airfield :











YOU CAN JOIN US ON...

 
LOGIN :

Register | Disclaimer

   EN    FR    IT 

 









Legend :    VFR   Marginal VFR   IFR   Intensive IFR   Very Intensive IFR
Visi :
Ceiling :
>= 8 km
>= 3000ft
5 to 8 km
1000 to 3000 ft
1500m to 5 km
500 to 1000 ft
800 to 1500m
200 to 500 ft
< 800m
< 200 ft
Symbols :   Thunderstorms  Fog  Heavy snow  Heavy precipitations  Wind > 20 kt






- Airport Elevation : 325 ft
- IATA code : ART


KART - Watertown International

CURRENT METAR :
  • 211856Z AUTO 34007KT 9SM -SN OVC017 00/M04 A2984 RMK AO2 SLP107 P0000 T00001039

EXPIRED METARs :
  • 211803Z AUTO 36009KT 6SM -SN FEW012 BKN017 OVC035 00/M04 A2983 RMK AO2 P0000 T00001039
  • 211756Z AUTO 36011KT 4SM -SN FEW010 BKN014 OVC035 00/M04 A2983 RMK AO2 SLP105 P0000 60003 T00001039 10000 21011 50002
  • 211743Z AUTO 35009KT 3SM -SN BKN011 BKN022 OVC028 00/M03 A2983 RMK AO2 P0000 T00001033
  • 211704Z AUTO 35009KT 1 1/4SM -SN BKN013 BKN023 OVC034 M01/M04 A2983 RMK AO2 P0000 T10111039
  • 211656Z AUTO 36011KT 1 1/4SM -SN SCT013 BKN018 OVC031 M01/M03 A2983 RMK AO2 SLP105 P0000 T10061033
  • 211639Z AUTO 36012KT 1 1/4SM -SN SCT011 BKN016 OVC025 M01/M03 A2983 RMK AO2 P0000 T10061033
  • 211623Z AUTO 35010KT 1 1/4SM -SN BR FEW009 BKN014 OVC027 M01/M03 A2983 RMK AO2 P0000 T10111033

TAF KART
Valid from the 21 at 19:00 until the 22 at 18:00 UTC


211839Z 2119/2218 35010KT 6SM -SN BR OVC015
FM212100 29007KT P6SM OVC035
FM220800 29010G16KT P6SM OVC030
FM221400 28017G23KT P6SM OVC050
KZBW FIR / North America



MET'MAP, your aeronautical weather chart ! - Copyright ORBIFLY December 2007 - Disclaimer

ORBIFLY MET'MAP TEAM :

Programming & Development : Alexandra Zaïnal
Concept & original design : Baudouin d'Aumeries
Assistance for programming : Marc-Olivier Méhu
Technical & hardware support : Manuel Goepfert

Contact : metmap@orbifly.com




SOURCES & CREDITS :

   NOAA       Earth
Advisory